sensor_id;sensor_type;location;lat;lon;timestamp;temperature;humidity
13115;DHT22;6623;52.120;8.660;2022-09-21T00:01:13;20.00;48.90
13115;DHT22;6623;52.120;8.660;2022-09-21T00:03:39;19.90;48.80
13115;DHT22;6623;52.120;8.660;2022-09-21T00:06:10;19.90;49.40
13115;DHT22;6623;52.120;8.660;2022-09-21T00:08:37;20.00;48.80
13115;DHT22;6623;52.120;8.660;2022-09-21T00:11:03;19.90;48.80
13115;DHT22;6623;52.120;8.660;2022-09-21T00:13:30;19.90;49.40
13115;DHT22;6623;52.120;8.660;2022-09-21T00:15:57;20.00;48.80
13115;DHT22;6623;52.120;8.660;2022-09-21T00:18:24;19.90;48.70
13115;DHT22;6623;52.120;8.660;2022-09-21T00:20:50;20.00;48.70
13115;DHT22;6623;52.120;8.660;2022-09-21T00:23:17;20.00;48.70
13115;DHT22;6623;52.120;8.660;2022-09-21T00:25:42;19.90;48.60
13115;DHT22;6623;52.120;8.660;2022-09-21T00:28:08;19.90;48.60
13115;DHT22;6623;52.120;8.660;2022-09-21T00:30:34;19.90;48.60
13115;DHT22;6623;52.120;8.660;2022-09-21T00:32:59;19.90;48.60
13115;DHT22;6623;52.120;8.660;2022-09-21T00:35:25;19.90;48.50
13115;DHT22;6623;52.120;8.660;2022-09-21T00:37:50;19.90;49.20
13115;DHT22;6623;52.120;8.660;2022-09-21T00:40:16;19.90;48.50
13115;DHT22;6623;52.120;8.660;2022-09-21T00:42:41;19.90;48.50
13115;DHT22;6623;52.120;8.660;2022-09-21T00:45:11;19.90;48.40
13115;DHT22;6623;52.120;8.660;2022-09-21T00:47:49;19.90;48.40
13115;DHT22;6623;52.120;8.660;2022-09-21T00:50:19;19.90;48.40
13115;DHT22;6623;52.120;8.660;2022-09-21T00:52:50;19.90;48.40
13115;DHT22;6623;52.120;8.660;2022-09-21T00:55:26;19.90;48.30
13115;DHT22;6623;52.120;8.660;2022-09-21T00:57:59;19.90;48.30
13115;DHT22;6623;52.120;8.660;2022-09-21T01:00:25;19.90;48.30
13115;DHT22;6623;52.120;8.660;2022-09-21T01:02:51;19.90;48.30
13115;DHT22;6623;52.120;8.660;2022-09-21T01:05:17;19.90;48.30
13115;DHT22;6623;52.120;8.660;2022-09-21T01:07:45;19.90;48.30
13115;DHT22;6623;52.120;8.660;2022-09-21T01:10:14;19.90;48.30
13115;DHT22;6623;52.120;8.660;2022-09-21T01:12:46;19.90;48.20
13115;DHT22;6623;52.120;8.660;2022-09-21T01:15:20;19.90;48.20
13115;DHT22;6623;52.120;8.660;2022-09-21T01:20:28;19.90;48.20
13115;DHT22;6623;52.120;8.660;2022-09-21T01:25:58;19.90;48.10
13115;DHT22;6623;52.120;8.660;2022-09-21T01:32:09;19.90;48.10
13115;DHT22;6623;52.120;8.660;2022-09-21T01:37:07;19.80;48.00
13115;DHT22;6623;52.120;8.660;2022-09-21T01:39:36;19.80;48.00
13115;DHT22;6623;52.120;8.660;2022-09-21T01:42:05;19.90;48.10
13115;DHT22;6623;52.120;8.660;2022-09-21T01:44:34;19.90;48.00
13115;DHT22;6623;52.120;8.660;2022-09-21T01:47:01;19.80;47.90
13115;DHT22;6623;52.120;8.660;2022-09-21T01:49:31;19.80;47.90
13115;DHT22;6623;52.120;8.660;2022-09-21T01:52:04;19.80;47.80
13115;DHT22;6623;52.120;8.660;2022-09-21T01:54:46;19.90;47.90
13115;DHT22;6623;52.120;8.660;2022-09-21T01:57:38;19.80;47.80
13115;DHT22;6623;52.120;8.660;2022-09-21T02:00:06;19.80;47.80
13115;DHT22;6623;52.120;8.660;2022-09-21T02:03:03;19.80;47.80
13115;DHT22;6623;52.120;8.660;2022-09-21T02:05:30;19.80;47.70
13115;DHT22;6623;52.120;8.660;2022-09-21T02:07:57;19.80;47.80
13115;DHT22;6623;52.120;8.660;2022-09-21T02:10:27;19.80;47.70
13115;DHT22;6623;52.120;8.660;2022-09-21T02:12:58;19.80;47.70
13115;DHT22;6623;52.120;8.660;2022-09-21T02:18:06;19.80;47.60
13115;DHT22;6623;52.120;8.660;2022-09-21T02:20:38;19.80;47.60
13115;DHT22;6623;52.120;8.660;2022-09-21T02:23:23;19.80;47.60
13115;DHT22;6623;52.120;8.660;2022-09-21T02:28:37;19.80;47.60
13115;DHT22;6623;52.120;8.660;2022-09-21T02:31:14;19.80;47.60
13115;DHT22;6623;52.120;8.660;2022-09-21T02:36:24;19.80;47.80
13115;DHT22;6623;52.120;8.660;2022-09-21T02:39:04;19.80;47.50
13115;DHT22;6623;52.120;8.660;2022-09-21T02:44:41;19.80;47.40
13115;DHT22;6623;52.120;8.660;2022-09-21T02:47:15;19.80;47.40
13115;DHT22;6623;52.120;8.660;2022-09-21T02:49:47;19.80;47.40
13115;DHT22;6623;52.120;8.660;2022-09-21T02:52:16;19.80;47.40
13115;DHT22;6623;52.120;8.660;2022-09-21T02:54:45;19.80;48.00
13115;DHT22;6623;52.120;8.660;2022-09-21T02:57:13;19.80;47.30
13115;DHT22;6623;52.120;8.660;2022-09-21T02:59:39;19.80;47.30
13115;DHT22;6623;52.120;8.660;2022-09-21T03:02:05;19.80;47.30
13115;DHT22;6623;52.120;8.660;2022-09-21T03:04:31;19.80;47.30
13115;DHT22;6623;52.120;8.660;2022-09-21T03:06:57;19.80;47.20
13115;DHT22;6623;52.120;8.660;2022-09-21T03:09:23;19.80;47.20
13115;DHT22;6623;52.120;8.660;2022-09-21T03:11:49;19.80;47.20
13115;DHT22;6623;52.120;8.660;2022-09-21T03:14:15;19.80;47.20
13115;DHT22;6623;52.120;8.660;2022-09-21T03:16:41;19.80;47.10
13115;DHT22;6623;52.120;8.660;2022-09-21T03:19:07;19.80;47.10
13115;DHT22;6623;52.120;8.660;2022-09-21T03:21:33;19.80;47.10
13115;DHT22;6623;52.120;8.660;2022-09-21T03:23:59;19.80;47.10
13115;DHT22;6623;52.120;8.660;2022-09-21T03:26:24;19.80;47.10
13115;DHT22;6623;52.120;8.660;2022-09-21T03:28:51;19.80;47.10
13115;DHT22;6623;52.120;8.660;2022-09-21T03:31:19;19.80;47.00
13115;DHT22;6623;52.120;8.660;2022-09-21T03:33:45;19.80;47.00
13115;DHT22;6623;52.120;8.660;2022-09-21T03:36:10;19.80;46.90
13115;DHT22;6623;52.120;8.660;2022-09-21T03:38:37;19.80;46.90
13115;DHT22;6623;52.120;8.660;2022-09-21T03:41:03;19.80;47.00
13115;DHT22;6623;52.120;8.660;2022-09-21T03:43:29;19.80;46.90
13115;DHT22;6623;52.120;8.660;2022-09-21T03:45:54;19.80;46.90
13115;DHT22;6623;52.120;8.660;2022-09-21T03:48:20;19.70;46.80
13115;DHT22;6623;52.120;8.660;2022-09-21T03:50:46;19.80;46.90
13115;DHT22;6623;52.120;8.660;2022-09-21T03:53:12;19.80;46.80
13115;DHT22;6623;52.120;8.660;2022-09-21T03:55:38;19.80;46.80
13115;DHT22;6623;52.120;8.660;2022-09-21T03:58:05;19.70;46.80
13115;DHT22;6623;52.120;8.660;2022-09-21T04:00:31;19.80;46.80
13115;DHT22;6623;52.120;8.660;2022-09-21T04:02:57;19.70;46.70
13115;DHT22;6623;52.120;8.660;2022-09-21T04:05:23;19.70;46.70
13115;DHT22;6623;52.120;8.660;2022-09-21T04:07:49;19.70;46.70
13115;DHT22;6623;52.120;8.660;2022-09-21T04:10:20;19.70;46.60
13115;DHT22;6623;52.120;8.660;2022-09-21T04:12:47;19.70;46.60
13115;DHT22;6623;52.120;8.660;2022-09-21T04:15:15;19.80;46.70
13115;DHT22;6623;52.120;8.660;2022-09-21T04:17:41;19.70;46.60
13115;DHT22;6623;52.120;8.660;2022-09-21T04:20:07;19.70;46.60
13115;DHT22;6623;52.120;8.660;2022-09-21T04:22:34;19.70;46.60
13115;DHT22;6623;52.120;8.660;2022-09-21T04:25:01;19.70;47.20
13115;DHT22;6623;52.120;8.660;2022-09-21T04:27:27;19.70;46.50
13115;DHT22;6623;52.120;8.660;2022-09-21T04:29:52;19.70;46.50
13115;DHT22;6623;52.120;8.660;2022-09-21T04:32:18;19.70;46.50
13115;DHT22;6623;52.120;8.660;2022-09-21T04:34:43;19.70;46.40
13115;DHT22;6623;52.120;8.660;2022-09-21T04:37:09;19.70;46.50
13115;DHT22;6623;52.120;8.660;2022-09-21T04:39:38;19.70;46.40
13115;DHT22;6623;52.120;8.660;2022-09-21T04:42:04;19.70;46.40
13115;DHT22;6623;52.120;8.660;2022-09-21T04:44:30;19.70;46.40
13115;DHT22;6623;52.120;8.660;2022-09-21T04:46:56;19.70;46.40
13115;DHT22;6623;52.120;8.660;2022-09-21T04:49:22;19.70;46.40
13115;DHT22;6623;52.120;8.660;2022-09-21T04:51:47;19.70;46.30
13115;DHT22;6623;52.120;8.660;2022-09-21T04:54:13;19.70;46.30
13115;DHT22;6623;52.120;8.660;2022-09-21T04:56:39;19.70;46.30
13115;DHT22;6623;52.120;8.660;2022-09-21T04:59:05;19.70;46.30
13115;DHT22;6623;52.120;8.660;2022-09-21T05:01:30;19.70;46.30
13115;DHT22;6623;52.120;8.660;2022-09-21T05:03:56;19.70;46.30
13115;DHT22;6623;52.120;8.660;2022-09-21T05:06:28;19.70;46.30
13115;DHT22;6623;52.120;8.660;2022-09-21T05:08:54;19.70;46.30
13115;DHT22;6623;52.120;8.660;2022-09-21T05:11:38;19.70;46.30
13115;DHT22;6623;52.120;8.660;2022-09-21T05:14:04;19.70;46.30
13115;DHT22;6623;52.120;8.660;2022-09-21T05:16:30;19.70;46.20
13115;DHT22;6623;52.120;8.660;2022-09-21T05:18:55;19.70;46.20
13115;DHT22;6623;52.120;8.660;2022-09-21T05:21:21;19.70;46.20
13115;DHT22;6623;52.120;8.660;2022-09-21T05:23:46;19.70;46.10
13115;DHT22;6623;52.120;8.660;2022-09-21T05:26:12;19.70;46.10
13115;DHT22;6623;52.120;8.660;2022-09-21T05:28:38;19.70;46.10
13115;DHT22;6623;52.120;8.660;2022-09-21T05:33:57;19.70;46.10
13115;DHT22;6623;52.120;8.660;2022-09-21T05:39:16;19.60;46.00
13115;DHT22;6623;52.120;8.660;2022-09-21T05:41:42;19.70;46.10
13115;DHT22;6623;52.120;8.660;2022-09-21T05:44:12;19.60;46.00
13115;DHT22;6623;52.120;8.660;2022-09-21T05:46:41;19.60;46.00
13115;DHT22;6623;52.120;8.660;2022-09-21T05:49:51;19.60;46.00
13115;DHT22;6623;52.120;8.660;2022-09-21T06:03:32;19.60;45.90
13115;DHT22;6623;52.120;8.660;2022-09-21T06:06:00;19.60;46.00
13115;DHT22;6623;52.120;8.660;2022-09-21T06:08:26;19.60;45.90
13115;DHT22;6623;52.120;8.660;2022-09-21T06:10:52;19.60;45.90
13115;DHT22;6623;52.120;8.660;2022-09-21T06:13:17;19.70;45.90
13115;DHT22;6623;52.120;8.660;2022-09-21T06:15:43;19.60;45.80
13115;DHT22;6623;52.120;8.660;2022-09-21T06:18:09;19.60;45.80
13115;DHT22;6623;52.120;8.660;2022-09-21T06:20:35;19.60;45.80
13115;DHT22;6623;52.120;8.660;2022-09-21T06:23:02;19.60;45.80
13115;DHT22;6623;52.120;8.660;2022-09-21T06:25:27;19.70;45.80
13115;DHT22;6623;52.120;8.660;2022-09-21T06:27:53;19.60;45.80
13115;DHT22;6623;52.120;8.660;2022-09-21T06:30:19;19.60;45.70
13115;DHT22;6623;52.120;8.660;2022-09-21T06:32:44;19.60;45.80
13115;DHT22;6623;52.120;8.660;2022-09-21T06:35:10;19.60;45.80
13115;DHT22;6623;52.120;8.660;2022-09-21T06:37:35;19.60;45.80
13115;DHT22;6623;52.120;8.660;2022-09-21T06:40:05;19.60;45.70
13115;DHT22;6623;52.120;8.660;2022-09-21T06:42:30;19.60;45.70
13115;DHT22;6623;52.120;8.660;2022-09-21T06:44:56;19.60;45.70
13115;DHT22;6623;52.120;8.660;2022-09-21T06:47:21;19.60;45.70
13115;DHT22;6623;52.120;8.660;2022-09-21T06:49:47;19.60;45.70
13115;DHT22;6623;52.120;8.660;2022-09-21T06:52:13;19.60;45.70
13115;DHT22;6623;52.120;8.660;2022-09-21T06:54:38;19.60;45.70
13115;DHT22;6623;52.120;8.660;2022-09-21T06:57:05;19.60;45.70
13115;DHT22;6623;52.120;8.660;2022-09-21T06:59:30;19.60;45.70
13115;DHT22;6623;52.120;8.660;2022-09-21T07:01:56;19.60;46.30
13115;DHT22;6623;52.120;8.660;2022-09-21T07:04:22;19.60;45.70
13115;DHT22;6623;52.120;8.660;2022-09-21T07:06:51;19.60;45.70
13115;DHT22;6623;52.120;8.660;2022-09-21T07:09:16;19.60;45.70
13115;DHT22;6623;52.120;8.660;2022-09-21T07:11:43;19.60;45.70
13115;DHT22;6623;52.120;8.660;2022-09-21T07:14:08;19.60;45.70
13115;DHT22;6623;52.120;8.660;2022-09-21T07:16:34;19.60;45.70
13115;DHT22;6623;52.120;8.660;2022-09-21T07:19:00;19.60;45.70
13115;DHT22;6623;52.120;8.660;2022-09-21T07:21:26;19.60;45.70
13115;DHT22;6623;52.120;8.660;2022-09-21T07:23:51;19.60;45.70
13115;DHT22;6623;52.120;8.660;2022-09-21T07:26:17;19.60;45.70
13115;DHT22;6623;52.120;8.660;2022-09-21T07:28:43;19.60;45.70
13115;DHT22;6623;52.120;8.660;2022-09-21T07:31:14;19.60;45.80
13115;DHT22;6623;52.120;8.660;2022-09-21T07:33:43;19.60;45.80
13115;DHT22;6623;52.120;8.660;2022-09-21T07:36:11;19.60;45.80
13115;DHT22;6623;52.120;8.660;2022-09-21T07:38:38;19.60;45.70
13115;DHT22;6623;52.120;8.660;2022-09-21T07:41:05;19.60;45.80
13115;DHT22;6623;52.120;8.660;2022-09-21T07:43:31;19.60;45.80
13115;DHT22;6623;52.120;8.660;2022-09-21T07:45:58;19.60;45.70
13115;DHT22;6623;52.120;8.660;2022-09-21T07:48:23;19.60;45.80
13115;DHT22;6623;52.120;8.660;2022-09-21T07:50:49;19.60;45.80
13115;DHT22;6623;52.120;8.660;2022-09-21T07:53:15;19.60;45.80
13115;DHT22;6623;52.120;8.660;2022-09-21T07:55:42;19.60;45.80
13115;DHT22;6623;52.120;8.660;2022-09-21T07:58:07;19.60;45.80
13115;DHT22;6623;52.120;8.660;2022-09-21T08:00:52;19.60;45.80
13115;DHT22;6623;52.120;8.660;2022-09-21T08:03:17;19.60;45.80
13115;DHT22;6623;52.120;8.660;2022-09-21T08:05:43;19.60;45.90
13115;DHT22;6623;52.120;8.660;2022-09-21T08:08:09;19.60;45.90
13115;DHT22;6623;52.120;8.660;2022-09-21T08:10:34;19.60;45.90
13115;DHT22;6623;52.120;8.660;2022-09-21T08:13:00;19.60;45.90
13115;DHT22;6623;52.120;8.660;2022-09-21T08:15:26;19.60;45.90
13115;DHT22;6623;52.120;8.660;2022-09-21T08:17:52;19.60;46.00
13115;DHT22;6623;52.120;8.660;2022-09-21T08:20:19;19.60;46.00
13115;DHT22;6623;52.120;8.660;2022-09-21T08:22:44;19.60;46.00
13115;DHT22;6623;52.120;8.660;2022-09-21T08:25:10;19.60;46.00
13115;DHT22;6623;52.120;8.660;2022-09-21T08:27:36;19.60;46.00
13115;DHT22;6623;52.120;8.660;2022-09-21T08:30:03;19.60;46.00
13115;DHT22;6623;52.120;8.660;2022-09-21T08:32:28;19.60;46.00
13115;DHT22;6623;52.120;8.660;2022-09-21T08:34:56;19.60;46.10
13115;DHT22;6623;52.120;8.660;2022-09-21T08:37:21;19.60;46.10
13115;DHT22;6623;52.120;8.660;2022-09-21T08:39:47;19.60;46.10
13115;DHT22;6623;52.120;8.660;2022-09-21T08:44:51;19.60;46.20
13115;DHT22;6623;52.120;8.660;2022-09-21T08:47:27;19.60;46.20
13115;DHT22;6623;52.120;8.660;2022-09-21T08:49:59;19.60;46.30
13115;DHT22;6623;52.120;8.660;2022-09-21T08:52:26;19.60;46.30
13115;DHT22;6623;52.120;8.660;2022-09-21T08:54:59;19.60;46.30
13115;DHT22;6623;52.120;8.660;2022-09-21T08:57:29;19.60;46.40
13115;DHT22;6623;52.120;8.660;2022-09-21T08:59:55;19.60;46.60
13115;DHT22;6623;52.120;8.660;2022-09-21T09:13:53;19.60;46.70
13115;DHT22;6623;52.120;8.660;2022-09-21T09:16:35;19.60;46.80
13115;DHT22;6623;52.120;8.660;2022-09-21T09:21:40;19.60;47.40
13115;DHT22;6623;52.120;8.660;2022-09-21T09:26:52;19.60;46.80
13115;DHT22;6623;52.120;8.660;2022-09-21T09:32:17;19.60;46.80
13115;DHT22;6623;52.120;8.660;2022-09-21T09:34:59;19.60;47.00
13115;DHT22;6623;52.120;8.660;2022-09-21T09:37:31;19.60;47.00
13115;DHT22;6623;52.120;8.660;2022-09-21T09:39:58;19.60;47.00
13115;DHT22;6623;52.120;8.660;2022-09-21T09:50:34;19.60;47.10
13115;DHT22;6623;52.120;8.660;2022-09-21T09:53:05;19.60;47.10
13115;DHT22;6623;52.120;8.660;2022-09-21T09:55:36;19.60;47.10
13115;DHT22;6623;52.120;8.660;2022-09-21T09:58:02;19.60;47.20
13115;DHT22;6623;52.120;8.660;2022-09-21T10:00:28;19.60;47.30
13115;DHT22;6623;52.120;8.660;2022-09-21T10:02:55;19.60;47.30
13115;DHT22;6623;52.120;8.660;2022-09-21T10:05:23;19.60;47.40
13115;DHT22;6623;52.120;8.660;2022-09-21T10:07:50;19.60;47.40
13115;DHT22;6623;52.120;8.660;2022-09-21T10:13:05;19.60;47.40
13115;DHT22;6623;52.120;8.660;2022-09-21T10:15:44;19.60;47.50
13115;DHT22;6623;52.120;8.660;2022-09-21T10:21:04;19.60;47.50
13115;DHT22;6623;52.120;8.660;2022-09-21T10:23:31;19.60;47.50
13115;DHT22;6623;52.120;8.660;2022-09-21T10:26:09;19.60;47.50
13115;DHT22;6623;52.120;8.660;2022-09-21T10:28:36;19.60;47.50
13115;DHT22;6623;52.120;8.660;2022-09-21T10:31:23;19.60;47.50
13115;DHT22;6623;52.120;8.660;2022-09-21T10:33:54;19.60;47.60
13115;DHT22;6623;52.120;8.660;2022-09-21T10:36:36;19.70;47.60
13115;DHT22;6623;52.120;8.660;2022-09-21T10:39:21;19.60;47.60
13115;DHT22;6623;52.120;8.660;2022-09-21T10:44:50;19.60;47.70
13115;DHT22;6623;52.120;8.660;2022-09-21T10:47:27;19.70;47.70
13115;DHT22;6623;52.120;8.660;2022-09-21T10:49:59;19.60;47.70
13115;DHT22;6623;52.120;8.660;2022-09-21T10:52:35;19.70;47.80
13115;DHT22;6623;52.120;8.660;2022-09-21T10:55:03;19.60;47.80
13115;DHT22;6623;52.120;8.660;2022-09-21T10:57:30;19.70;47.80
13115;DHT22;6623;52.120;8.660;2022-09-21T10:59:56;19.70;47.80
13115;DHT22;6623;52.120;8.660;2022-09-21T11:02:33;19.70;48.40
13115;DHT22;6623;52.120;8.660;2022-09-21T11:05:16;19.70;47.80
13115;DHT22;6623;52.120;8.660;2022-09-21T11:07:51;19.70;47.90
13115;DHT22;6623;52.120;8.660;2022-09-21T11:10:23;19.70;47.90
13115;DHT22;6623;52.120;8.660;2022-09-21T11:13:08;19.70;47.90
13115;DHT22;6623;52.120;8.660;2022-09-21T11:16:00;19.70;48.00
13115;DHT22;6623;52.120;8.660;2022-09-21T11:18:57;19.70;48.00
13115;DHT22;6623;52.120;8.660;2022-09-21T11:27:19;19.70;48.70
13115;DHT22;6623;52.120;8.660;2022-09-21T11:35:14;19.70;48.20
13115;DHT22;6623;52.120;8.660;2022-09-21T11:37:48;19.70;48.20
13115;DHT22;6623;52.120;8.660;2022-09-21T11:49:09;19.70;48.20
13115;DHT22;6623;52.120;8.660;2022-09-21T11:54:26;19.70;48.30
13115;DHT22;6623;52.120;8.660;2022-09-21T11:57:24;19.70;48.40
13115;DHT22;6623;52.120;8.660;2022-09-21T12:03:04;19.70;48.40
13115;DHT22;6623;52.120;8.660;2022-09-21T12:09:02;19.70;48.40
13115;DHT22;6623;52.120;8.660;2022-09-21T12:11:40;19.70;48.40
13115;DHT22;6623;52.120;8.660;2022-09-21T12:14:32;19.70;48.40
13115;DHT22;6623;52.120;8.660;2022-09-21T12:17:25;19.70;48.50
13115;DHT22;6623;52.120;8.660;2022-09-21T12:22:39;19.70;48.50
13115;DHT22;6623;52.120;8.660;2022-09-21T12:25:26;19.70;48.50
13115;DHT22;6623;52.120;8.660;2022-09-21T12:27:55;19.70;48.50
13115;DHT22;6623;52.120;8.660;2022-09-21T12:30:23;19.70;48.50
13115;DHT22;6623;52.120;8.660;2022-09-21T12:33:34;19.70;48.60
13115;DHT22;6623;52.120;8.660;2022-09-21T12:36:12;19.70;48.60
13115;DHT22;6623;52.120;8.660;2022-09-21T12:38:53;19.70;48.60
13115;DHT22;6623;52.120;8.660;2022-09-21T12:43:56;19.70;48.60
13115;DHT22;6623;52.120;8.660;2022-09-21T12:46:35;19.70;48.60
13115;DHT22;6623;52.120;8.660;2022-09-21T12:49:13;19.70;48.60
13115;DHT22;6623;52.120;8.660;2022-09-21T12:51:48;19.80;48.70
13115;DHT22;6623;52.120;8.660;2022-09-21T12:54:18;19.70;48.60
13115;DHT22;6623;52.120;8.660;2022-09-21T12:56:58;19.80;48.70
13115;DHT22;6623;52.120;8.660;2022-09-21T12:59:38;19.80;48.80
13115;DHT22;6623;52.120;8.660;2022-09-21T13:07:41;19.80;48.80
13115;DHT22;6623;52.120;8.660;2022-09-21T13:10:21;19.80;48.90
13115;DHT22;6623;52.120;8.660;2022-09-21T13:12:52;19.80;48.90
13115;DHT22;6623;52.120;8.660;2022-09-21T13:15:25;19.80;48.80
13115;DHT22;6623;52.120;8.660;2022-09-21T13:18:05;19.80;48.80
13115;DHT22;6623;52.120;8.660;2022-09-21T13:20:39;19.80;48.90
13115;DHT22;6623;52.120;8.660;2022-09-21T13:23:14;19.80;48.90
13115;DHT22;6623;52.120;8.660;2022-09-21T13:25:41;19.80;48.90
13115;DHT22;6623;52.120;8.660;2022-09-21T13:33:30;19.80;48.90
13115;DHT22;6623;52.120;8.660;2022-09-21T13:36:09;19.80;48.90
13115;DHT22;6623;52.120;8.660;2022-09-21T13:51:58;19.90;48.80
13115;DHT22;6623;52.120;8.660;2022-09-21T13:57:38;19.90;48.70
13115;DHT22;6623;52.120;8.660;2022-09-21T14:02:33;19.80;48.80
13115;DHT22;6623;52.120;8.660;2022-09-21T14:05:17;19.80;48.80
13115;DHT22;6623;52.120;8.660;2022-09-21T14:07:44;19.80;48.90
13115;DHT22;6623;52.120;8.660;2022-09-21T14:10:17;19.80;48.90
13115;DHT22;6623;52.120;8.660;2022-09-21T14:12:43;19.80;48.90
13115;DHT22;6623;52.120;8.660;2022-09-21T14:15:30;19.80;48.90
13115;DHT22;6623;52.120;8.660;2022-09-21T14:23:32;19.80;48.90
13115;DHT22;6623;52.120;8.660;2022-09-21T14:25:59;19.80;48.90
13115;DHT22;6623;52.120;8.660;2022-09-21T14:28:42;19.80;48.90
13115;DHT22;6623;52.120;8.660;2022-09-21T14:31:23;19.80;48.90
13115;DHT22;6623;52.120;8.660;2022-09-21T14:33:53;19.80;48.90
13115;DHT22;6623;52.120;8.660;2022-09-21T14:36:27;19.80;48.90
13115;DHT22;6623;52.120;8.660;2022-09-21T14:38:58;19.80;48.90
13115;DHT22;6623;52.120;8.660;2022-09-21T14:41:35;19.80;48.90
13115;DHT22;6623;52.120;8.660;2022-09-21T14:44:01;19.80;48.90
13115;DHT22;6623;52.120;8.660;2022-09-21T14:46:52;19.80;48.90
13115;DHT22;6623;52.120;8.660;2022-09-21T14:54:48;19.80;48.90
13115;DHT22;6623;52.120;8.660;2022-09-21T15:02:47;19.80;48.90
13115;DHT22;6623;52.120;8.660;2022-09-21T15:05:35;19.80;48.90
13115;DHT22;6623;52.120;8.660;2022-09-21T15:08:21;19.80;48.90
13115;DHT22;6623;52.120;8.660;2022-09-21T15:11:30;19.80;49.00
13115;DHT22;6623;52.120;8.660;2022-09-21T15:16:44;19.80;48.90
13115;DHT22;6623;52.120;8.660;2022-09-21T15:21:45;19.80;48.90
13115;DHT22;6623;52.120;8.660;2022-09-21T15:26:50;19.80;48.90
13115;DHT22;6623;52.120;8.660;2022-09-21T15:29:27;19.80;48.90
13115;DHT22;6623;52.120;8.660;2022-09-21T15:31:53;19.80;48.90
13115;DHT22;6623;52.120;8.660;2022-09-21T15:34:20;19.80;48.90
13115;DHT22;6623;52.120;8.660;2022-09-21T15:36:46;19.80;48.80
13115;DHT22;6623;52.120;8.660;2022-09-21T15:39:35;19.80;48.90
13115;DHT22;6623;52.120;8.660;2022-09-21T15:44:32;19.80;48.90
13115;DHT22;6623;52.120;8.660;2022-09-21T15:46:59;19.80;48.90
13115;DHT22;6623;52.120;8.660;2022-09-21T15:49:28;19.80;48.90
13115;DHT22;6623;52.120;8.660;2022-09-21T15:55:09;19.80;48.90
13115;DHT22;6623;52.120;8.660;2022-09-21T15:57:40;19.80;48.80
13115;DHT22;6623;52.120;8.660;2022-09-21T16:02:40;19.80;48.80
13115;DHT22;6623;52.120;8.660;2022-09-21T16:05:11;19.80;48.80
13115;DHT22;6623;52.120;8.660;2022-09-21T16:07:38;19.80;49.50
13115;DHT22;6623;52.120;8.660;2022-09-21T16:13:22;19.80;48.80
13115;DHT22;6623;52.120;8.660;2022-09-21T16:16:12;19.80;48.80
13115;DHT22;6623;52.120;8.660;2022-09-21T16:21:30;19.80;48.80
13115;DHT22;6623;52.120;8.660;2022-09-21T16:24:06;19.80;48.80
13115;DHT22;6623;52.120;8.660;2022-09-21T16:26:35;19.80;48.80
13115;DHT22;6623;52.120;8.660;2022-09-21T16:31:35;19.80;48.90
13115;DHT22;6623;52.120;8.660;2022-09-21T16:34:30;19.80;48.80
13115;DHT22;6623;52.120;8.660;2022-09-21T16:36:58;19.80;48.80
13115;DHT22;6623;52.120;8.660;2022-09-21T16:39:23;19.80;48.80
13115;DHT22;6623;52.120;8.660;2022-09-21T16:41:52;19.80;48.80
13115;DHT22;6623;52.120;8.660;2022-09-21T16:44:21;19.80;48.80
13115;DHT22;6623;52.120;8.660;2022-09-21T16:46:58;19.80;48.80
13115;DHT22;6623;52.120;8.660;2022-09-21T16:49:26;19.80;48.80
13115;DHT22;6623;52.120;8.660;2022-09-21T16:51:54;19.80;48.80
13115;DHT22;6623;52.120;8.660;2022-09-21T16:54:20;19.80;48.80
13115;DHT22;6623;52.120;8.660;2022-09-21T16:56:49;19.80;48.80
13115;DHT22;6623;52.120;8.660;2022-09-21T16:59:16;19.80;48.80
13115;DHT22;6623;52.120;8.660;2022-09-21T17:01:48;19.90;48.80
13115;DHT22;6623;52.120;8.660;2022-09-21T17:04:16;19.80;48.70
13115;DHT22;6623;52.120;8.660;2022-09-21T17:06:42;19.80;48.80
13115;DHT22;6623;52.120;8.660;2022-09-21T17:09:20;19.80;48.70
13115;DHT22;6623;52.120;8.660;2022-09-21T17:11:46;19.90;48.80
13115;DHT22;6623;52.120;8.660;2022-09-21T17:14:13;19.80;48.70
13115;DHT22;6623;52.120;8.660;2022-09-21T17:16:49;19.80;48.70
13115;DHT22;6623;52.120;8.660;2022-09-21T17:19:15;19.90;48.80
13115;DHT22;6623;52.120;8.660;2022-09-21T17:21:41;19.80;48.70
13115;DHT22;6623;52.120;8.660;2022-09-21T17:24:07;19.80;48.70
13115;DHT22;6623;52.120;8.660;2022-09-21T17:26:33;19.80;48.70
13115;DHT22;6623;52.120;8.660;2022-09-21T17:28:59;19.80;48.70
13115;DHT22;6623;52.120;8.660;2022-09-21T17:31:27;19.90;48.80
13115;DHT22;6623;52.120;8.660;2022-09-21T17:33:53;19.80;48.80
13115;DHT22;6623;52.120;8.660;2022-09-21T17:36:20;19.90;48.80
13115;DHT22;6623;52.120;8.660;2022-09-21T17:38:46;19.80;48.70
13115;DHT22;6623;52.120;8.660;2022-09-21T17:41:23;19.90;48.80
13115;DHT22;6623;52.120;8.660;2022-09-21T17:46:59;19.80;48.70
13115;DHT22;6623;52.120;8.660;2022-09-21T17:49:29;19.80;48.70
13115;DHT22;6623;52.120;8.660;2022-09-21T17:51:55;19.80;48.70
13115;DHT22;6623;52.120;8.660;2022-09-21T17:54:39;19.80;48.70
13115;DHT22;6623;52.120;8.660;2022-09-21T17:57:12;19.80;48.70
13115;DHT22;6623;52.120;8.660;2022-09-21T17:59:49;19.80;48.70
13115;DHT22;6623;52.120;8.660;2022-09-21T18:02:23;19.80;48.70
13115;DHT22;6623;52.120;8.660;2022-09-21T18:04:52;19.80;48.70
13115;DHT22;6623;52.120;8.660;2022-09-21T18:07:21;19.80;48.70
13115;DHT22;6623;52.120;8.660;2022-09-21T18:09:48;19.80;48.70
13115;DHT22;6623;52.120;8.660;2022-09-21T18:12:29;19.80;48.70
13115;DHT22;6623;52.120;8.660;2022-09-21T18:15:00;19.90;48.80
13115;DHT22;6623;52.120;8.660;2022-09-21T18:20:49;19.80;48.70
13115;DHT22;6623;52.120;8.660;2022-09-21T18:23:46;19.80;48.70
13115;DHT22;6623;52.120;8.660;2022-09-21T18:26:13;19.80;48.70
13115;DHT22;6623;52.120;8.660;2022-09-21T18:28:45;19.80;48.70
13115;DHT22;6623;52.120;8.660;2022-09-21T18:45:37;19.80;48.70
13115;DHT22;6623;52.120;8.660;2022-09-21T18:50:58;19.80;48.60
13115;DHT22;6623;52.120;8.660;2022-09-21T18:55:55;19.80;48.70
13115;DHT22;6623;52.120;8.660;2022-09-21T18:58:21;19.80;48.60
13115;DHT22;6623;52.120;8.660;2022-09-21T19:00:47;19.80;48.60
13115;DHT22;6623;52.120;8.660;2022-09-21T19:03:14;19.80;48.60
13115;DHT22;6623;52.120;8.660;2022-09-21T19:08:33;19.80;48.50
13115;DHT22;6623;52.120;8.660;2022-09-21T19:19:47;19.80;48.50
13115;DHT22;6623;52.120;8.660;2022-09-21T19:22:25;19.80;48.50
13115;DHT22;6623;52.120;8.660;2022-09-21T19:31:17;19.80;48.60
13115;DHT22;6623;52.120;8.660;2022-09-21T19:33:44;19.80;48.60
13115;DHT22;6623;52.120;8.660;2022-09-21T19:36:11;19.80;48.60
13115;DHT22;6623;52.120;8.660;2022-09-21T19:38:37;19.80;48.50
13115;DHT22;6623;52.120;8.660;2022-09-21T19:46:56;19.80;48.40
13115;DHT22;6623;52.120;8.660;2022-09-21T19:49:23;19.80;48.40
13115;DHT22;6623;52.120;8.660;2022-09-21T19:51:54;19.80;48.50
13115;DHT22;6623;52.120;8.660;2022-09-21T19:54:23;19.80;48.50
13115;DHT22;6623;52.120;8.660;2022-09-21T19:57:19;19.80;48.40
13115;DHT22;6623;52.120;8.660;2022-09-21T20:00:06;19.80;48.40